sensor_id;sensor_type;location;lat;lon;timestamp;pressure;altitude;pressure_sealevel;temperature;humidity
74561;BME280;62979;55.720;37.606;2023-03-31T00:01:36;99100.03;;;4.48;54.83
74561;BME280;62979;55.720;37.606;2023-03-31T00:04:07;99092.41;;;4.31;54.84
74561;BME280;62979;55.720;37.606;2023-03-31T00:06:39;99099.28;;;4.35;54.97
74561;BME280;62979;55.720;37.606;2023-03-31T00:09:09;99070.88;;;4.27;55.07
74561;BME280;62979;55.720;37.606;2023-03-31T00:11:38;99083.72;;;4.38;54.51
74561;BME280;62979;55.720;37.606;2023-03-31T00:14:07;99072.50;;;4.39;54.62
74561;BME280;62979;55.720;37.606;2023-03-31T00:16:35;99098.44;;;4.32;54.72
74561;BME280;62979;55.720;37.606;2023-03-31T00:19:04;99083.00;;;4.19;54.81
74561;BME280;62979;55.720;37.606;2023-03-31T00:21:35;99085.63;;;4.16;54.69
74561;BME280;62979;55.720;37.606;2023-03-31T00:24:03;99088.19;;;4.19;54.49
74561;BME280;62979;55.720;37.606;2023-03-31T00:26:32;99091.72;;;4.12;55.04
74561;BME280;62979;55.720;37.606;2023-03-31T00:29:00;99096.91;;;4.12;55.05
74561;BME280;62979;55.720;37.606;2023-03-31T00:31:30;99088.22;;;4.18;55.32
74561;BME280;62979;55.720;37.606;2023-03-31T00:33:58;99078.81;;;4.07;55.13
74561;BME280;62979;55.720;37.606;2023-03-31T00:36:25;99085.66;;;4.12;55.01
74561;BME280;62979;55.720;37.606;2023-03-31T00:38:57;99083.16;;;4.04;54.88
74561;BME280;62979;55.720;37.606;2023-03-31T00:41:27;99074.56;;;3.97;55.14
74561;BME280;62979;55.720;37.606;2023-03-31T00:44:01;99071.25;;;3.81;55.30
74561;BME280;62979;55.720;37.606;2023-03-31T00:46:41;99076.53;;;3.66;55.89
74561;BME280;62979;55.720;37.606;2023-03-31T00:49:17;99067.81;;;3.79;55.91
74561;BME280;62979;55.720;37.606;2023-03-31T00:51:56;99081.63;;;3.75;56.02
74561;BME280;62979;55.720;37.606;2023-03-31T00:54:28;99076.44;;;3.81;56.05
74561;BME280;62979;55.720;37.606;2023-03-31T00:56:57;99079.84;;;3.86;55.68
74561;BME280;62979;55.720;37.606;2023-03-31T00:59:29;99073.03;;;3.76;55.52
74561;BME280;62979;55.720;37.606;2023-03-31T01:02:01;99082.50;;;3.74;55.66
74561;BME280;62979;55.720;37.606;2023-03-31T01:04:32;99079.94;;;3.74;56.29
74561;BME280;62979;55.720;37.606;2023-03-31T01:07:08;99071.19;;;3.89;56.01
74561;BME280;62979;55.720;37.606;2023-03-31T01:09:43;99064.41;;;3.74;55.94
74561;BME280;62979;55.720;37.606;2023-03-31T01:12:14;99057.44;;;3.82;55.98
74561;BME280;62979;55.720;37.606;2023-03-31T01:14:43;99051.34;;;3.90;55.86
74561;BME280;62979;55.720;37.606;2023-03-31T01:17:11;99056.47;;;3.99;55.50
74561;BME280;62979;55.720;37.606;2023-03-31T01:19:56;99029.78;;;3.94;55.39
74561;BME280;62979;55.720;37.606;2023-03-31T01:26:11;99040.06;;;4.03;55.29
74561;BME280;62979;55.720;37.606;2023-03-31T01:28:58;99042.59;;;4.06;55.03
74561;BME280;62979;55.720;37.606;2023-03-31T01:31:54;99046.00;;;4.13;55.00
74561;BME280;62979;55.720;37.606;2023-03-31T01:34:55;99027.03;;;4.11;54.83
74561;BME280;62979;55.720;37.606;2023-03-31T01:41:26;99023.66;;;4.05;54.95
74561;BME280;62979;55.720;37.606;2023-03-31T01:44:08;99025.38;;;4.02;55.09
74561;BME280;62979;55.720;37.606;2023-03-31T01:46:51;99032.28;;;4.00;55.01
74561;BME280;62979;55.720;37.606;2023-03-31T01:49:30;99021.16;;;3.92;55.34
74561;BME280;62979;55.720;37.606;2023-03-31T01:52:07;99028.84;;;4.02;55.09
74561;BME280;62979;55.720;37.606;2023-03-31T01:54:47;99017.63;;;4.02;55.31
74561;BME280;62979;55.720;37.606;2023-03-31T01:57:21;99022.75;;;4.08;55.20
74561;BME280;62979;55.720;37.606;2023-03-31T01:59:55;99023.56;;;4.12;55.37
74561;BME280;62979;55.720;37.606;2023-03-31T02:02:30;99002.97;;;4.02;55.33
74561;BME280;62979;55.720;37.606;2023-03-31T02:05:05;99020.13;;;4.11;55.25
74561;BME280;62979;55.720;37.606;2023-03-31T02:07:38;99014.09;;;4.12;55.17
74561;BME280;62979;55.720;37.606;2023-03-31T02:10:11;99023.53;;;4.16;55.10
74561;BME280;62979;55.720;37.606;2023-03-31T02:12:43;99026.16;;;4.15;55.04
74561;BME280;62979;55.720;37.606;2023-03-31T02:15:13;99007.19;;;4.10;55.03
74561;BME280;62979;55.720;37.606;2023-03-31T02:17:48;99016.63;;;4.17;55.46
74561;BME280;62979;55.720;37.606;2023-03-31T02:20:20;99008.00;;;4.16;54.98
74561;BME280;62979;55.720;37.606;2023-03-31T02:22:51;99020.09;;;4.16;55.38
74561;BME280;62979;55.720;37.606;2023-03-31T02:25:23;99013.25;;;4.10;55.01
74561;BME280;62979;55.720;37.606;2023-03-31T02:27:57;99019.28;;;4.09;55.54
74561;BME280;62979;55.720;37.606;2023-03-31T02:30:32;99021.03;;;4.07;54.96
74561;BME280;62979;55.720;37.606;2023-03-31T02:33:09;99017.66;;;3.97;55.00
74561;BME280;62979;55.720;37.606;2023-03-31T02:35:36;99014.22;;;3.97;54.53
74561;BME280;62979;55.720;37.606;2023-03-31T02:38:03;99020.28;;;3.94;54.59
74561;BME280;62979;55.720;37.606;2023-03-31T02:40:31;99029.84;;;3.84;54.71
74561;BME280;62979;55.720;37.606;2023-03-31T02:43:00;99035.00;;;3.88;54.87
74561;BME280;62979;55.720;37.606;2023-03-31T02:45:43;99029.84;;;3.84;54.64
74561;BME280;62979;55.720;37.606;2023-03-31T02:48:15;99036.75;;;3.84;55.10
74561;BME280;62979;55.720;37.606;2023-03-31T02:51:01;99035.94;;;3.80;55.10
74561;BME280;62979;55.720;37.606;2023-03-31T02:53:55;99032.50;;;3.78;55.05
74561;BME280;62979;55.720;37.606;2023-03-31T02:56:57;99043.72;;;3.74;55.36
74561;BME280;62979;55.720;37.606;2023-03-31T02:59:49;99051.50;;;3.71;55.47
74561;BME280;62979;55.720;37.606;2023-03-31T03:02:34;99041.13;;;3.74;55.57
74561;BME280;62979;55.720;37.606;2023-03-31T03:05:18;99029.09;;;3.70;55.75
74561;BME280;62979;55.720;37.606;2023-03-31T03:07:57;99024.81;;;3.69;55.62
74561;BME280;62979;55.720;37.606;2023-03-31T03:10:40;99018.84;;;3.61;55.96
74561;BME280;62979;55.720;37.606;2023-03-31T03:13:17;99026.56;;;3.64;56.00
74561;BME280;62979;55.720;37.606;2023-03-31T03:15:54;99041.13;;;3.74;56.07
74561;BME280;62979;55.720;37.606;2023-03-31T03:18:27;99027.31;;;3.77;56.31
74561;BME280;62979;55.720;37.606;2023-03-31T03:20:54;99026.44;;;3.79;56.29
74561;BME280;62979;55.720;37.606;2023-03-31T03:23:21;99029.03;;;3.78;56.06
74561;BME280;62979;55.720;37.606;2023-03-31T03:25:48;99020.34;;;3.85;56.22
74561;BME280;62979;55.720;37.606;2023-03-31T03:28:15;99008.28;;;3.87;56.17
74561;BME280;62979;55.720;37.606;2023-03-31T03:30:42;99007.38;;;3.90;55.93
74561;BME280;62979;55.720;37.606;2023-03-31T03:33:11;99009.94;;;3.96;56.11
74561;BME280;62979;55.720;37.606;2023-03-31T03:35:41;98998.69;;;3.97;56.11
74561;BME280;62979;55.720;37.606;2023-03-31T03:38:08;98993.50;;;4.00;55.95
74561;BME280;62979;55.720;37.606;2023-03-31T03:40:35;98986.56;;;4.02;55.91
74561;BME280;62979;55.720;37.606;2023-03-31T03:43:02;98985.69;;;4.06;55.75
74561;BME280;62979;55.720;37.606;2023-03-31T03:45:29;98986.56;;;4.05;55.82
74561;BME280;62979;55.720;37.606;2023-03-31T03:47:56;98992.56;;;4.08;55.89
74561;BME280;62979;55.720;37.606;2023-03-31T03:50:24;98985.66;;;4.09;56.01
74561;BME280;62979;55.720;37.606;2023-03-31T03:52:51;98973.56;;;4.13;56.18
74561;BME280;62979;55.720;37.606;2023-03-31T03:55:18;98963.25;;;4.08;56.02
74561;BME280;62979;55.720;37.606;2023-03-31T03:57:45;98968.44;;;4.06;56.00
74561;BME280;62979;55.720;37.606;2023-03-31T04:00:12;98965.84;;;4.06;55.98
74561;BME280;62979;55.720;37.606;2023-03-31T04:02:39;98966.66;;;4.13;56.23
74561;BME280;62979;55.720;37.606;2023-03-31T04:05:06;98960.56;;;4.16;56.39
74561;BME280;62979;55.720;37.606;2023-03-31T04:07:35;98963.97;;;4.19;56.33
74561;BME280;62979;55.720;37.606;2023-03-31T04:10:02;98961.44;;;4.16;56.29
74561;BME280;62979;55.720;37.606;2023-03-31T04:12:29;98953.63;;;4.19;56.26
74561;BME280;62979;55.720;37.606;2023-03-31T04:14:56;98951.88;;;4.21;55.71
74561;BME280;62979;55.720;37.606;2023-03-31T04:17:23;98946.84;;;4.12;55.93
74561;BME280;62979;55.720;37.606;2023-03-31T04:19:56;98955.44;;;4.11;56.04
74561;BME280;62979;55.720;37.606;2023-03-31T04:22:26;98951.13;;;4.13;56.05
74561;BME280;62979;55.720;37.606;2023-03-31T04:25:01;98956.25;;;4.16;56.31
74561;BME280;62979;55.720;37.606;2023-03-31T04:27:28;98945.03;;;4.17;55.96
74561;BME280;62979;55.720;37.606;2023-03-31T04:29:58;98936.47;;;4.12;56.03
74561;BME280;62979;55.720;37.606;2023-03-31T04:32:25;98946.78;;;4.15;56.23
74561;BME280;62979;55.720;37.606;2023-03-31T04:34:52;98956.25;;;4.16;56.05
74561;BME280;62979;55.720;37.606;2023-03-31T04:37:27;98950.13;;;4.23;55.96
74561;BME280;62979;55.720;37.606;2023-03-31T04:39:59;98953.63;;;4.19;55.79
74561;BME280;62979;55.720;37.606;2023-03-31T04:42:33;98934.78;;;4.08;56.27
74561;BME280;62979;55.720;37.606;2023-03-31T04:45:00;98934.66;;;4.19;55.90
74561;BME280;62979;55.720;37.606;2023-03-31T04:47:27;98932.03;;;4.23;55.85
74561;BME280;62979;55.720;37.606;2023-03-31T04:49:54;98941.53;;;4.24;55.93
74561;BME280;62979;55.720;37.606;2023-03-31T04:52:21;98924.34;;;4.17;55.98
74561;BME280;62979;55.720;37.606;2023-03-31T04:54:48;98938.03;;;4.25;56.02
74561;BME280;62979;55.720;37.606;2023-03-31T04:57:16;98943.19;;;4.28;56.03
74561;BME280;62979;55.720;37.606;2023-03-31T04:59:43;98939.06;;;4.09;55.72
74561;BME280;62979;55.720;37.606;2023-03-31T05:02:10;98935.72;;;3.99;56.16
74561;BME280;62979;55.720;37.606;2023-03-31T05:04:37;98944.59;;;3.72;57.43
74561;BME280;62979;55.720;37.606;2023-03-31T05:07:04;98944.59;;;3.72;57.68
74561;BME280;62979;55.720;37.606;2023-03-31T05:09:31;98947.03;;;3.88;58.14
74561;BME280;62979;55.720;37.606;2023-03-31T05:11:58;98940.06;;;3.99;57.56
74561;BME280;62979;55.720;37.606;2023-03-31T05:14:27;98949.59;;;3.95;56.95
74561;BME280;62979;55.720;37.606;2023-03-31T05:16:54;98935.81;;;3.92;57.71
74561;BME280;62979;55.720;37.606;2023-03-31T05:19:22;98948.56;;;4.08;57.50
74561;BME280;62979;55.720;37.606;2023-03-31T05:21:49;98952.00;;;4.09;56.71
74561;BME280;62979;55.720;37.606;2023-03-31T05:24:16;98952.97;;;3.99;57.18
74561;BME280;62979;55.720;37.606;2023-03-31T05:26:43;98946.88;;;4.06;57.55
74561;BME280;62979;55.720;37.606;2023-03-31T05:29:14;98945.91;;;4.18;57.76
74561;BME280;62979;55.720;37.606;2023-03-31T05:31:43;98945.03;;;4.17;56.90
74561;BME280;62979;55.720;37.606;2023-03-31T05:34:10;98934.50;;;4.33;56.85
74561;BME280;62979;55.720;37.606;2023-03-31T05:36:37;98925.84;;;4.35;56.53
74561;BME280;62979;55.720;37.606;2023-03-31T05:39:04;98918.03;;;4.40;56.79
74561;BME280;62979;55.720;37.606;2023-03-31T05:41:32;98925.69;;;4.49;56.46
74561;BME280;62979;55.720;37.606;2023-03-31T05:43:59;98935.16;;;4.52;56.19
74561;BME280;62979;55.720;37.606;2023-03-31T05:46:27;98936.13;;;4.43;56.14
74561;BME280;62979;55.720;37.606;2023-03-31T05:48:55;98930.00;;;4.50;56.43
74561;BME280;62979;55.720;37.606;2023-03-31T05:51:23;98919.78;;;4.39;56.45
74561;BME280;62979;55.720;37.606;2023-03-31T05:53:50;98913.56;;;4.53;56.36
74561;BME280;62979;55.720;37.606;2023-03-31T05:56:16;98905.63;;;4.65;55.86
74561;BME280;62979;55.720;37.606;2023-03-31T05:58:44;98903.81;;;4.71;55.67
74561;BME280;62979;55.720;37.606;2023-03-31T06:01:12;98899.44;;;4.75;55.95
74561;BME280;62979;55.720;37.606;2023-03-31T06:03:47;98894.16;;;4.83;55.76
74561;BME280;62979;55.720;37.606;2023-03-31T06:06:16;98903.53;;;4.93;55.72
74561;BME280;62979;55.720;37.606;2023-03-31T06:08:45;98883.63;;;4.95;55.42
74561;BME280;62979;55.720;37.606;2023-03-31T06:11:14;98894.66;;;5.08;55.07
74561;BME280;62979;55.720;37.606;2023-03-31T06:13:44;98890.22;;;5.16;54.70
74561;BME280;62979;55.720;37.606;2023-03-31T06:16:13;98848.28;;;4.91;54.58
74561;BME280;62979;55.720;37.606;2023-03-31T06:18:42;98882.44;;;5.16;54.21
74561;BME280;62979;55.720;37.606;2023-03-31T06:21:11;98892.00;;;5.12;54.46
74561;BME280;62979;55.720;37.606;2023-03-31T06:23:42;98901.41;;;5.18;54.30
74561;BME280;62979;55.720;37.606;2023-03-31T06:26:12;98905.69;;;5.21;54.44
74561;BME280;62979;55.720;37.606;2023-03-31T06:28:40;98915.22;;;5.20;54.24
74561;BME280;62979;55.720;37.606;2023-03-31T06:31:08;98902.19;;;5.25;54.48
74561;BME280;62979;55.720;37.606;2023-03-31T06:33:38;98904.78;;;5.23;54.32
74561;BME280;62979;55.720;37.606;2023-03-31T06:36:06;98896.06;;;5.29;54.24
74561;BME280;62979;55.720;37.606;2023-03-31T06:38:35;98897.78;;;5.30;54.32
74561;BME280;62979;55.720;37.606;2023-03-31T06:41:05;98895.06;;;5.39;54.25
74561;BME280;62979;55.720;37.606;2023-03-31T06:43:33;98883.06;;;5.32;54.17
74561;BME280;62979;55.720;37.606;2023-03-31T06:46:00;98890.59;;;5.46;54.11
74561;BME280;62979;55.720;37.606;2023-03-31T06:48:28;98894.94;;;5.45;54.08
74561;BME280;62979;55.720;37.606;2023-03-31T06:50:57;98890.66;;;5.43;54.19
74561;BME280;62979;55.720;37.606;2023-03-31T06:53:26;98898.25;;;5.53;53.76
74561;BME280;62979;55.720;37.606;2023-03-31T06:55:53;98900.06;;;5.48;53.84
74561;BME280;62979;55.720;37.606;2023-03-31T06:58:21;98888.00;;;5.47;53.76
74561;BME280;62979;55.720;37.606;2023-03-31T07:00:49;98884.41;;;5.54;53.74
74561;BME280;62979;55.720;37.606;2023-03-31T07:03:17;98885.31;;;5.52;53.70
74561;BME280;62979;55.720;37.606;2023-03-31T07:05:47;98890.44;;;5.55;53.35
74561;BME280;62979;55.720;37.606;2023-03-31T07:08:15;98884.28;;;5.61;53.72
74561;BME280;62979;55.720;37.606;2023-03-31T07:10:43;98891.91;;;5.70;53.52
74561;BME280;62979;55.720;37.606;2023-03-31T07:13:13;98887.69;;;5.66;53.47
74561;BME280;62979;55.720;37.606;2023-03-31T07:15:45;98883.56;;;5.52;53.40
74561;BME280;62979;55.720;37.606;2023-03-31T07:18:13;98890.47;;;5.53;53.98
74561;BME280;62979;55.720;37.606;2023-03-31T07:20:41;98886.06;;;5.58;54.01
74561;BME280;62979;55.720;37.606;2023-03-31T07:23:08;98874.91;;;5.53;53.82
74561;BME280;62979;55.720;37.606;2023-03-31T07:25:35;98885.88;;;5.71;53.68
74561;BME280;62979;55.720;37.606;2023-03-31T07:28:03;98880.53;;;5.77;54.41
74561;BME280;62979;55.720;37.606;2023-03-31T07:30:30;98880.69;;;5.69;53.38
74561;BME280;62979;55.720;37.606;2023-03-31T07:33:00;98866.81;;;5.72;55.84
74561;BME280;62979;55.720;37.606;2023-03-31T07:35:28;98877.53;;;6.02;55.82
74561;BME280;62979;55.720;37.606;2023-03-31T07:37:54;98885.81;;;6.20;53.81
74561;BME280;62979;55.720;37.606;2023-03-31T07:40:24;98877.88;;;6.27;54.53
74561;BME280;62979;55.720;37.606;2023-03-31T07:42:52;98878.47;;;6.41;54.35
74561;BME280;62979;55.720;37.606;2023-03-31T07:45:20;98877.44;;;6.50;53.80
74561;BME280;62979;55.720;37.606;2023-03-31T07:47:51;98877.41;;;6.51;53.68
74561;BME280;62979;55.720;37.606;2023-03-31T07:50:20;98879.13;;;6.51;53.60
74561;BME280;62979;55.720;37.606;2023-03-31T07:52:49;98867.16;;;6.43;53.28
74561;BME280;62979;55.720;37.606;2023-03-31T07:55:17;98876.44;;;6.55;53.29
74561;BME280;62979;55.720;37.606;2023-03-31T07:57:44;98861.19;;;6.40;52.48
74561;BME280;62979;55.720;37.606;2023-03-31T08:00:13;98867.81;;;6.53;53.28
74561;BME280;62979;55.720;37.606;2023-03-31T08:02:41;98876.34;;;6.60;53.07
74561;BME280;62979;55.720;37.606;2023-03-31T08:05:10;98865.03;;;6.62;52.84
74561;BME280;62979;55.720;37.606;2023-03-31T08:07:42;98862.44;;;6.62;52.62
74561;BME280;62979;55.720;37.606;2023-03-31T08:10:14;98860.69;;;6.63;52.25
74561;BME280;62979;55.720;37.606;2023-03-31T08:12:42;98860.75;;;6.60;52.60
74561;BME280;62979;55.720;37.606;2023-03-31T08:15:10;98857.13;;;6.67;52.66
74561;BME280;62979;55.720;37.606;2023-03-31T08:17:38;98853.41;;;6.79;52.91
74561;BME280;62979;55.720;37.606;2023-03-31T08:20:06;98852.09;;;6.59;51.51
74561;BME280;62979;55.720;37.606;2023-03-31T08:22:35;98852.75;;;6.69;53.21
74561;BME280;62979;55.720;37.606;2023-03-31T08:25:04;98826.75;;;6.71;53.62
74561;BME280;62979;55.720;37.606;2023-03-31T08:27:32;98832.75;;;7.10;53.39
74561;BME280;62979;55.720;37.606;2023-03-31T08:30:00;98834.88;;;7.28;52.19
74561;BME280;62979;55.720;37.606;2023-03-31T08:32:29;98828.50;;;7.42;52.34
74561;BME280;62979;55.720;37.606;2023-03-31T08:34:57;98823.63;;;7.62;52.13
74561;BME280;62979;55.720;37.606;2023-03-31T08:37:26;98802.06;;;7.57;51.19
74561;BME280;62979;55.720;37.606;2023-03-31T08:39:53;98818.19;;;7.71;50.57
74561;BME280;62979;55.720;37.606;2023-03-31T08:42:26;98815.38;;;7.78;50.62
74561;BME280;62979;55.720;37.606;2023-03-31T08:45:04;98799.78;;;7.78;50.58
74561;BME280;62979;55.720;37.606;2023-03-31T08:47:49;98808.84;;;7.96;50.70
74561;BME280;62979;55.720;37.606;2023-03-31T08:50:22;98802.22;;;7.84;49.45
74561;BME280;62979;55.720;37.606;2023-03-31T08:52:58;98802.00;;;7.91;50.66
74561;BME280;62979;55.720;37.606;2023-03-31T08:55:36;98794.22;;;7.90;50.30
74561;BME280;62979;55.720;37.606;2023-03-31T08:58:31;98802.13;;;7.87;49.42
74561;BME280;62979;55.720;37.606;2023-03-31T09:01:09;98798.44;;;7.96;50.55
74561;BME280;62979;55.720;37.606;2023-03-31T09:03:58;98791.34;;;8.01;49.39
74561;BME280;62979;55.720;37.606;2023-03-31T09:06:37;98797.66;;;7.92;49.96
74561;BME280;62979;55.720;37.606;2023-03-31T09:09:11;98800.44;;;7.86;49.93
74561;BME280;62979;55.720;37.606;2023-03-31T09:11:49;98787.22;;;7.92;50.04
74561;BME280;62979;55.720;37.606;2023-03-31T09:14:33;98794.66;;;8.06;50.09
74561;BME280;62979;55.720;37.606;2023-03-31T09:17:13;98789.59;;;8.01;49.97
74561;BME280;62979;55.720;37.606;2023-03-31T09:19:49;98782.09;;;7.90;49.85
74561;BME280;62979;55.720;37.606;2023-03-31T09:22:22;98787.19;;;7.93;49.79
74561;BME280;62979;55.720;37.606;2023-03-31T09:24:55;98780.22;;;7.96;49.28
74561;BME280;62979;55.720;37.606;2023-03-31T09:27:27;98778.91;;;7.81;48.49
74561;BME280;62979;55.720;37.606;2023-03-31T09:30:08;98771.63;;;7.61;49.12
74561;BME280;62979;55.720;37.606;2023-03-31T09:32:40;98761.97;;;7.33;49.55
74561;BME280;62979;55.720;37.606;2023-03-31T09:35:16;98753.41;;;7.28;49.61
74561;BME280;62979;55.720;37.606;2023-03-31T09:37:46;98757.25;;;7.15;49.83
74561;BME280;62979;55.720;37.606;2023-03-31T09:40:16;98748.72;;;7.10;50.30
74561;BME280;62979;55.720;37.606;2023-03-31T09:42:46;98735.75;;;7.08;50.43
74561;BME280;62979;55.720;37.606;2023-03-31T09:45:20;98730.44;;;7.13;50.24
74561;BME280;62979;55.720;37.606;2023-03-31T09:47:50;98736.56;;;7.10;50.43
74561;BME280;62979;55.720;37.606;2023-03-31T09:50:20;98732.31;;;7.06;50.50
74561;BME280;62979;55.720;37.606;2023-03-31T09:52:51;98722.03;;;7.01;50.63
74561;BME280;62979;55.720;37.606;2023-03-31T09:55:22;98730.69;;;7.02;50.86
74561;BME280;62979;55.720;37.606;2023-03-31T09:57:52;98719.44;;;7.01;50.58
74561;BME280;62979;55.720;37.606;2023-03-31T10:00:22;98722.09;;;7.00;50.77
74561;BME280;62979;55.720;37.606;2023-03-31T10:02:50;98729.09;;;6.98;50.95
74561;BME280;62979;55.720;37.606;2023-03-31T10:05:27;98727.31;;;7.00;50.90
74561;BME280;62979;55.720;37.606;2023-03-31T10:08:23;98722.88;;;7.02;51.00
74561;BME280;62979;55.720;37.606;2023-03-31T10:10:53;98717.97;;;6.91;50.77
74561;BME280;62979;55.720;37.606;2023-03-31T10:13:23;98718.81;;;6.93;50.73
74561;BME280;62979;55.720;37.606;2023-03-31T10:16:01;98723.19;;;6.91;50.61
74561;BME280;62979;55.720;37.606;2023-03-31T10:18:34;98720.59;;;6.90;50.99
74561;BME280;62979;55.720;37.606;2023-03-31T10:21:05;98718.91;;;6.89;51.15
74561;BME280;62979;55.720;37.606;2023-03-31T10:23:34;98716.44;;;6.84;51.35
74561;BME280;62979;55.720;37.606;2023-03-31T10:26:02;98724.09;;;6.89;51.14
74561;BME280;62979;55.720;37.606;2023-03-31T10:28:32;98711.84;;;6.94;51.29
74561;BME280;62979;55.720;37.606;2023-03-31T10:31:03;98700.59;;;6.93;51.31
74561;BME280;62979;55.720;37.606;2023-03-31T10:33:31;98696.34;;;6.91;51.40
74561;BME280;62979;55.720;37.606;2023-03-31T10:36:06;98691.16;;;6.89;51.32
74561;BME280;62979;55.720;37.606;2023-03-31T10:38:48;98683.34;;;6.91;51.61
74561;BME280;62979;55.720;37.606;2023-03-31T10:41:18;98672.28;;;6.82;51.54
74561;BME280;62979;55.720;37.606;2023-03-31T10:43:49;98668.75;;;6.85;51.56
74561;BME280;62979;55.720;37.606;2023-03-31T10:46:19;98678.97;;;6.93;51.32
74561;BME280;62979;55.720;37.606;2023-03-31T10:48:46;98682.44;;;6.92;51.29
74561;BME280;62979;55.720;37.606;2023-03-31T10:51:16;98684.16;;;6.93;51.23
74561;BME280;62979;55.720;37.606;2023-03-31T10:53:46;98684.00;;;6.64;51.49
74561;BME280;62979;55.720;37.606;2023-03-31T10:56:36;98679.66;;;6.65;51.81
74561;BME280;62979;55.720;37.606;2023-03-31T10:59:17;98677.66;;;6.76;52.34
74561;BME280;62979;55.720;37.606;2023-03-31T11:02:06;98674.97;;;6.79;52.09
74561;BME280;62979;55.720;37.606;2023-03-31T11:05:08;98669.03;;;6.74;52.10
74561;BME280;62979;55.720;37.606;2023-03-31T11:07:49;98664.91;;;6.65;52.46
74561;BME280;62979;55.720;37.606;2023-03-31T11:10:38;98667.66;;;6.61;52.95
74561;BME280;62979;55.720;37.606;2023-03-31T11:13:21;98662.47;;;6.59;53.14
74561;BME280;62979;55.720;37.606;2023-03-31T11:15:55;98651.97;;;6.64;53.48
74561;BME280;62979;55.720;37.606;2023-03-31T11:18:48;98653.25;;;6.48;53.55
74561;BME280;62979;55.720;37.606;2023-03-31T11:21:31;98645.03;;;6.29;54.72
74561;BME280;62979;55.720;37.606;2023-03-31T11:24:20;98642.63;;;6.21;55.27
74561;BME280;62979;55.720;37.606;2023-03-31T11:27:06;98645.56;;;6.43;54.78
74561;BME280;62979;55.720;37.606;2023-03-31T11:29:55;98648.66;;;6.57;54.30
74561;BME280;62979;55.720;37.606;2023-03-31T11:32:46;98644.72;;;6.42;54.34
74561;BME280;62979;55.720;37.606;2023-03-31T11:35:50;98633.19;;;6.53;54.80
74561;BME280;62979;55.720;37.606;2023-03-31T11:38:45;98633.91;;;6.59;54.60
74561;BME280;62979;55.720;37.606;2023-03-31T11:41:30;98624.13;;;6.69;54.61
74561;BME280;62979;55.720;37.606;2023-03-31T11:44:02;98616.03;;;6.80;54.55
74561;BME280;62979;55.720;37.606;2023-03-31T11:46:37;98618.53;;;6.84;54.23
74561;BME280;62979;55.720;37.606;2023-03-31T11:49:15;98614.13;;;6.88;54.43
74561;BME280;62979;55.720;37.606;2023-03-31T11:51:51;98616.59;;;6.93;54.47
74561;BME280;62979;55.720;37.606;2023-03-31T11:54:26;98590.63;;;6.91;54.13
74561;BME280;62979;55.720;37.606;2023-03-31T11:57:00;98609.44;;;7.01;54.37
74561;BME280;62979;55.720;37.606;2023-03-31T11:59:33;98596.75;;;6.90;54.15
74561;BME280;62979;55.720;37.606;2023-03-31T12:02:11;98599.03;;;7.01;54.24
74561;BME280;62979;55.720;37.606;2023-03-31T12:04:44;98599.97;;;6.98;54.14
74561;BME280;62979;55.720;37.606;2023-03-31T12:07:22;98603.13;;;7.10;53.94
74561;BME280;62979;55.720;37.606;2023-03-31T12:09:59;98598.81;;;7.08;54.03
74561;BME280;62979;55.720;37.606;2023-03-31T12:12:41;98603.19;;;7.06;54.09
74561;BME280;62979;55.720;37.606;2023-03-31T12:15:17;98597.16;;;7.06;53.95
74561;BME280;62979;55.720;37.606;2023-03-31T12:17:51;98607.56;;;7.06;53.79
74561;BME280;62979;55.720;37.606;2023-03-31T12:20:30;98599.75;;;7.06;54.19
74561;BME280;62979;55.720;37.606;2023-03-31T12:23:02;98593.75;;;7.04;54.12
74561;BME280;62979;55.720;37.606;2023-03-31T12:25:44;98588.59;;;7.02;53.94
74561;BME280;62979;55.720;37.606;2023-03-31T12:28:18;98580.03;;;6.99;54.13
74561;BME280;62979;55.720;37.606;2023-03-31T12:30:47;98582.72;;;6.96;54.34
74561;BME280;62979;55.720;37.606;2023-03-31T12:33:17;98590.66;;;6.90;54.29
74561;BME280;62979;55.720;37.606;2023-03-31T12:35:59;98582.22;;;6.81;54.17
74561;BME280;62979;55.720;37.606;2023-03-31T12:38:49;98582.66;;;6.66;54.70
74561;BME280;62979;55.720;37.606;2023-03-31T12:41:27;98563.25;;;6.47;55.17
74561;BME280;62979;55.720;37.606;2023-03-31T12:44:23;98564.13;;;6.46;55.44
74561;BME280;62979;55.720;37.606;2023-03-31T12:47:15;98568.03;;;6.62;55.51
74561;BME280;62979;55.720;37.606;2023-03-31T12:50:13;98563.56;;;6.67;55.15
74561;BME280;62979;55.720;37.606;2023-03-31T12:53:03;98568.28;;;6.53;55.45
74561;BME280;62979;55.720;37.606;2023-03-31T12:55:42;98563.81;;;6.58;55.53
74561;BME280;62979;55.720;37.606;2023-03-31T12:58:36;98567.53;;;6.48;55.85
74561;BME280;62979;55.720;37.606;2023-03-31T13:01:07;98559.78;;;6.46;56.39
74561;BME280;62979;55.720;37.606;2023-03-31T13:03:48;98561.63;;;6.42;56.43
74561;BME280;62979;55.720;37.606;2023-03-31T13:06:55;98550.41;;;6.40;56.50
74561;BME280;62979;55.720;37.606;2023-03-31T13:09:44;98548.72;;;6.39;56.95
74561;BME280;62979;55.720;37.606;2023-03-31T13:12:16;98546.75;;;6.48;57.06
74561;BME280;62979;55.720;37.606;2023-03-31T13:14:47;98553.59;;;6.52;56.98
74561;BME280;62979;55.720;37.606;2023-03-31T13:17:29;98556.28;;;6.49;56.78
74561;BME280;62979;55.720;37.606;2023-03-31T13:23:59;98541.25;;;6.60;56.91
74561;BME280;62979;55.720;37.606;2023-03-31T13:26:39;98537.81;;;6.59;56.92
74561;BME280;62979;55.720;37.606;2023-03-31T13:29:24;98535.94;;;6.64;57.15
74561;BME280;62979;55.720;37.606;2023-03-31T13:32:17;98539.50;;;6.60;57.22
74561;BME280;62979;55.720;37.606;2023-03-31T13:34:50;98538.16;;;6.46;57.25
74561;BME280;62979;55.720;37.606;2023-03-31T13:37:38;98535.50;;;6.49;57.61
74561;BME280;62979;55.720;37.606;2023-03-31T13:40:37;98532.97;;;6.46;57.65
74561;BME280;62979;55.720;37.606;2023-03-31T13:43:42;98536.28;;;6.51;57.78
74561;BME280;62979;55.720;37.606;2023-03-31T13:46:45;98527.72;;;6.49;58.00